sensor_id;sensor_type;location;lat;lon;timestamp;P1;durP1;ratioP1;P2;durP2;ratioP2
14768;SDS011;7476;49.404;11.152;2022-09-13T00:00:24;9.60;;;8.23;;
14768;SDS011;7476;49.404;11.152;2022-09-13T00:02:51;10.03;;;8.10;;
14768;SDS011;7476;49.404;11.152;2022-09-13T00:05:18;11.70;;;7.97;;
14768;SDS011;7476;49.404;11.152;2022-09-13T00:07:46;10.57;;;7.50;;
14768;SDS011;7476;49.404;11.152;2022-09-13T00:10:13;10.67;;;7.70;;
14768;SDS011;7476;49.404;11.152;2022-09-13T00:12:40;8.53;;;6.83;;
14768;SDS011;7476;49.404;11.152;2022-09-13T00:15:07;9.57;;;7.60;;
14768;SDS011;7476;49.404;11.152;2022-09-13T00:17:35;9.87;;;7.67;;
14768;SDS011;7476;49.404;11.152;2022-09-13T00:20:02;10.30;;;7.50;;
14768;SDS011;7476;49.404;11.152;2022-09-13T00:22:30;8.17;;;7.30;;
14768;SDS011;7476;49.404;11.152;2022-09-13T00:24:58;8.13;;;7.03;;
14768;SDS011;7476;49.404;11.152;2022-09-13T00:27:24;8.37;;;7.30;;
14768;SDS011;7476;49.404;11.152;2022-09-13T00:29:51;9.30;;;7.83;;
14768;SDS011;7476;49.404;11.152;2022-09-13T00:32:17;10.83;;;7.97;;
14768;SDS011;7476;49.404;11.152;2022-09-13T00:34:44;8.87;;;7.87;;
14768;SDS011;7476;49.404;11.152;2022-09-13T00:37:11;10.27;;;7.67;;
14768;SDS011;7476;49.404;11.152;2022-09-13T00:39:37;10.23;;;7.67;;
14768;SDS011;7476;49.404;11.152;2022-09-13T00:42:07;8.70;;;7.80;;
14768;SDS011;7476;49.404;11.152;2022-09-13T00:44:46;8.93;;;7.63;;
14768;SDS011;7476;49.404;11.152;2022-09-13T00:47:18;11.60;;;8.27;;
14768;SDS011;7476;49.404;11.152;2022-09-13T00:49:47;11.40;;;7.47;;
14768;SDS011;7476;49.404;11.152;2022-09-13T00:52:19;9.77;;;7.63;;
14768;SDS011;7476;49.404;11.152;2022-09-13T00:54:49;9.23;;;7.33;;
14768;SDS011;7476;49.404;11.152;2022-09-13T00:57:23;9.97;;;7.07;;
14768;SDS011;7476;49.404;11.152;2022-09-13T00:59:51;9.13;;;7.30;;
14768;SDS011;7476;49.404;11.152;2022-09-13T01:02:24;9.37;;;8.13;;
14768;SDS011;7476;49.404;11.152;2022-09-13T01:04:51;9.47;;;7.50;;
14768;SDS011;7476;49.404;11.152;2022-09-13T01:07:18;9.37;;;7.83;;
14768;SDS011;7476;49.404;11.152;2022-09-13T01:09:45;9.67;;;8.40;;
14768;SDS011;7476;49.404;11.152;2022-09-13T01:12:14;11.83;;;8.80;;
14768;SDS011;7476;49.404;11.152;2022-09-13T01:14:50;9.57;;;8.10;;
14768;SDS011;7476;49.404;11.152;2022-09-13T01:17:18;10.43;;;7.83;;
14768;SDS011;7476;49.404;11.152;2022-09-13T01:19:44;9.47;;;8.47;;
14768;SDS011;7476;49.404;11.152;2022-09-13T01:22:24;11.03;;;8.13;;
14768;SDS011;7476;49.404;11.152;2022-09-13T01:28:16;12.63;;;8.30;;
14768;SDS011;7476;49.404;11.152;2022-09-13T01:31:04;12.30;;;7.90;;
14768;SDS011;7476;49.404;11.152;2022-09-13T01:33:41;10.40;;;7.43;;
14768;SDS011;7476;49.404;11.152;2022-09-13T01:39:13;11.63;;;7.80;;
14768;SDS011;7476;49.404;11.152;2022-09-13T01:41:47;7.80;;;6.93;;
14768;SDS011;7476;49.404;11.152;2022-09-13T01:44:28;9.07;;;7.13;;
14768;SDS011;7476;49.404;11.152;2022-09-13T01:47:05;9.30;;;7.30;;
14768;SDS011;7476;49.404;11.152;2022-09-13T01:49:45;8.80;;;7.20;;
14768;SDS011;7476;49.404;11.152;2022-09-13T01:52:20;9.43;;;6.73;;
14768;SDS011;7476;49.404;11.152;2022-09-13T01:54:56;10.60;;;7.33;;
14768;SDS011;7476;49.404;11.152;2022-09-13T01:57:30;8.10;;;7.30;;
14768;SDS011;7476;49.404;11.152;2022-09-13T02:00:03;8.83;;;7.37;;
14768;SDS011;7476;49.404;11.152;2022-09-13T02:02:35;9.07;;;7.60;;
14768;SDS011;7476;49.404;11.152;2022-09-13T02:05:06;11.23;;;7.87;;
14768;SDS011;7476;49.404;11.152;2022-09-13T02:07:37;8.80;;;7.60;;
14768;SDS011;7476;49.404;11.152;2022-09-13T02:10:08;9.73;;;7.00;;
14768;SDS011;7476;49.404;11.152;2022-09-13T02:12:38;9.37;;;7.53;;
14768;SDS011;7476;49.404;11.152;2022-09-13T02:15:08;11.37;;;7.97;;
14768;SDS011;7476;49.404;11.152;2022-09-13T02:17:42;13.63;;;7.57;;
14768;SDS011;7476;49.404;11.152;2022-09-13T02:20:15;10.80;;;7.23;;
14768;SDS011;7476;49.404;11.152;2022-09-13T02:22:48;7.90;;;7.10;;
14768;SDS011;7476;49.404;11.152;2022-09-13T02:25:19;9.60;;;7.90;;
14768;SDS011;7476;49.404;11.152;2022-09-13T02:27:50;7.70;;;6.90;;
14768;SDS011;7476;49.404;11.152;2022-09-13T02:30:23;9.40;;;7.60;;
14768;SDS011;7476;49.404;11.152;2022-09-13T02:32:53;10.87;;;7.90;;
14768;SDS011;7476;49.404;11.152;2022-09-13T02:35:26;10.50;;;8.10;;
14768;SDS011;7476;49.404;11.152;2022-09-13T02:37:59;12.17;;;7.73;;
14768;SDS011;7476;49.404;11.152;2022-09-13T02:40:30;9.70;;;7.40;;
14768;SDS011;7476;49.404;11.152;2022-09-13T02:43:01;11.30;;;7.87;;
14768;SDS011;7476;49.404;11.152;2022-09-13T02:45:35;9.00;;;7.60;;
14768;SDS011;7476;49.404;11.152;2022-09-13T02:48:11;11.10;;;8.43;;
14768;SDS011;7476;49.404;11.152;2022-09-13T02:50:45;9.47;;;7.67;;
14768;SDS011;7476;49.404;11.152;2022-09-13T02:53:24;9.90;;;7.83;;
14768;SDS011;7476;49.404;11.152;2022-09-13T02:55:58;11.83;;;8.03;;
14768;SDS011;7476;49.404;11.152;2022-09-13T02:58:31;9.00;;;7.93;;
14768;SDS011;7476;49.404;11.152;2022-09-13T03:01:01;19.47;;;8.87;;
14768;SDS011;7476;49.404;11.152;2022-09-13T03:03:29;10.70;;;7.70;;
14768;SDS011;7476;49.404;11.152;2022-09-13T03:05:55;10.30;;;7.70;;
14768;SDS011;7476;49.404;11.152;2022-09-13T03:08:22;11.67;;;8.00;;
14768;SDS011;7476;49.404;11.152;2022-09-13T03:10:52;12.37;;;7.93;;
14768;SDS011;7476;49.404;11.152;2022-09-13T03:13:48;9.63;;;7.97;;
14768;SDS011;7476;49.404;11.152;2022-09-13T03:16:31;11.93;;;7.30;;
14768;SDS011;7476;49.404;11.152;2022-09-13T03:19:16;8.83;;;7.07;;
14768;SDS011;7476;49.404;11.152;2022-09-13T03:21:54;8.03;;;7.17;;
14768;SDS011;7476;49.404;11.152;2022-09-13T03:24:32;10.17;;;7.60;;
14768;SDS011;7476;49.404;11.152;2022-09-13T03:27:07;8.60;;;7.67;;
14768;SDS011;7476;49.404;11.152;2022-09-13T03:29:44;14.53;;;8.30;;
14768;SDS011;7476;49.404;11.152;2022-09-13T03:32:23;9.83;;;8.27;;
14768;SDS011;7476;49.404;11.152;2022-09-13T03:34:57;13.30;;;9.03;;
14768;SDS011;7476;49.404;11.152;2022-09-13T03:37:31;11.40;;;9.63;;
14768;SDS011;7476;49.404;11.152;2022-09-13T03:40:02;12.40;;;8.77;;
14768;SDS011;7476;49.404;11.152;2022-09-13T03:42:34;9.47;;;8.47;;
14768;SDS011;7476;49.404;11.152;2022-09-13T03:45:07;11.13;;;8.40;;
14768;SDS011;7476;49.404;11.152;2022-09-13T03:47:36;9.30;;;8.03;;
14768;SDS011;7476;49.404;11.152;2022-09-13T03:50:08;11.20;;;8.53;;
14768;SDS011;7476;49.404;11.152;2022-09-13T03:52:35;9.20;;;8.30;;
14768;SDS011;7476;49.404;11.152;2022-09-13T03:55:02;10.90;;;8.97;;
14768;SDS011;7476;49.404;11.152;2022-09-13T03:57:29;12.60;;;8.67;;
14768;SDS011;7476;49.404;11.152;2022-09-13T03:59:56;11.43;;;8.03;;
14768;SDS011;7476;49.404;11.152;2022-09-13T04:02:24;9.33;;;7.93;;
14768;SDS011;7476;49.404;11.152;2022-09-13T04:04:51;12.90;;;8.13;;
14768;SDS011;7476;49.404;11.152;2022-09-13T04:07:20;8.90;;;8.00;;
14768;SDS011;7476;49.404;11.152;2022-09-13T04:09:49;8.97;;;8.00;;
14768;SDS011;7476;49.404;11.152;2022-09-13T04:12:16;8.27;;;7.47;;
14768;SDS011;7476;49.404;11.152;2022-09-13T04:14:43;10.00;;;8.10;;
14768;SDS011;7476;49.404;11.152;2022-09-13T04:17:10;10.10;;;9.03;;
14768;SDS011;7476;49.404;11.152;2022-09-13T04:19:37;8.20;;;7.30;;
14768;SDS011;7476;49.404;11.152;2022-09-13T04:22:04;8.97;;;7.33;;
14768;SDS011;7476;49.404;11.152;2022-09-13T04:24:32;9.47;;;7.43;;
14768;SDS011;7476;49.404;11.152;2022-09-13T04:27:00;9.20;;;7.90;;
14768;SDS011;7476;49.404;11.152;2022-09-13T04:29:26;11.07;;;7.77;;
14768;SDS011;7476;49.404;11.152;2022-09-13T04:31:54;9.53;;;8.27;;
14768;SDS011;7476;49.404;11.152;2022-09-13T04:34:20;10.27;;;8.17;;
14768;SDS011;7476;49.404;11.152;2022-09-13T04:36:48;10.43;;;8.67;;
14768;SDS011;7476;49.404;11.152;2022-09-13T04:39:15;8.67;;;7.40;;
14768;SDS011;7476;49.404;11.152;2022-09-13T04:41:43;8.67;;;7.37;;
14768;SDS011;7476;49.404;11.152;2022-09-13T04:44:12;10.00;;;7.07;;
14768;SDS011;7476;49.404;11.152;2022-09-13T04:46:39;8.80;;;7.60;;
14768;SDS011;7476;49.404;11.152;2022-09-13T04:49:06;9.27;;;7.53;;
14768;SDS011;7476;49.404;11.152;2022-09-13T04:51:35;10.90;;;8.23;;
14768;SDS011;7476;49.404;11.152;2022-09-13T04:54:01;8.97;;;7.97;;
14768;SDS011;7476;49.404;11.152;2022-09-13T04:56:29;8.70;;;7.73;;
14768;SDS011;7476;49.404;11.152;2022-09-13T04:58:57;10.57;;;7.87;;
14768;SDS011;7476;49.404;11.152;2022-09-13T05:01:24;9.87;;;8.00;;
14768;SDS011;7476;49.404;11.152;2022-09-13T05:03:50;10.37;;;8.23;;
14768;SDS011;7476;49.404;11.152;2022-09-13T05:06:17;9.53;;;8.00;;
14768;SDS011;7476;49.404;11.152;2022-09-13T05:08:48;10.10;;;8.20;;
14768;SDS011;7476;49.404;11.152;2022-09-13T05:11:18;11.73;;;7.77;;
14768;SDS011;7476;49.404;11.152;2022-09-13T05:13:47;10.27;;;8.00;;
14768;SDS011;7476;49.404;11.152;2022-09-13T05:16:18;9.43;;;7.90;;
14768;SDS011;7476;49.404;11.152;2022-09-13T05:18:45;10.43;;;8.43;;
14768;SDS011;7476;49.404;11.152;2022-09-13T05:21:12;9.83;;;8.23;;
14768;SDS011;7476;49.404;11.152;2022-09-13T05:23:38;11.80;;;8.90;;
14768;SDS011;7476;49.404;11.152;2022-09-13T05:26:05;10.33;;;8.13;;
14768;SDS011;7476;49.404;11.152;2022-09-13T05:28:32;9.03;;;7.50;;
14768;SDS011;7476;49.404;11.152;2022-09-13T05:31:00;11.23;;;7.97;;
14768;SDS011;7476;49.404;11.152;2022-09-13T05:33:30;12.20;;;8.53;;
14768;SDS011;7476;49.404;11.152;2022-09-13T05:35:58;9.60;;;8.63;;
14768;SDS011;7476;49.404;11.152;2022-09-13T05:38:25;12.43;;;8.87;;
14768;SDS011;7476;49.404;11.152;2022-09-13T05:40:52;10.83;;;9.43;;
14768;SDS011;7476;49.404;11.152;2022-09-13T05:43:21;12.03;;;9.60;;
14768;SDS011;7476;49.404;11.152;2022-09-13T05:45:47;12.00;;;10.10;;
14768;SDS011;7476;49.404;11.152;2022-09-13T05:48:14;11.43;;;10.20;;
14768;SDS011;7476;49.404;11.152;2022-09-13T05:50:42;11.87;;;10.67;;
14768;SDS011;7476;49.404;11.152;2022-09-13T05:53:09;13.97;;;10.80;;
14768;SDS011;7476;49.404;11.152;2022-09-13T05:55:35;12.27;;;10.57;;
14768;SDS011;7476;49.404;11.152;2022-09-13T05:58:02;10.27;;;9.27;;
14768;SDS011;7476;49.404;11.152;2022-09-13T06:00:29;10.07;;;8.83;;
14768;SDS011;7476;49.404;11.152;2022-09-13T06:02:56;9.50;;;8.50;;
14768;SDS011;7476;49.404;11.152;2022-09-13T06:05:23;8.40;;;7.03;;
14768;SDS011;7476;49.404;11.152;2022-09-13T06:07:51;8.27;;;7.40;;
14768;SDS011;7476;49.404;11.152;2022-09-13T06:10:18;9.67;;;7.70;;
14768;SDS011;7476;49.404;11.152;2022-09-13T06:12:45;8.07;;;6.53;;
14768;SDS011;7476;49.404;11.152;2022-09-13T06:15:12;7.93;;;7.20;;
14768;SDS011;7476;49.404;11.152;2022-09-13T06:17:39;7.60;;;6.80;;
14768;SDS011;7476;49.404;11.152;2022-09-13T06:20:06;9.03;;;6.73;;
14768;SDS011;7476;49.404;11.152;2022-09-13T06:22:34;7.10;;;6.50;;
14768;SDS011;7476;49.404;11.152;2022-09-13T06:25:02;7.83;;;6.43;;
14768;SDS011;7476;49.404;11.152;2022-09-13T06:27:29;8.63;;;7.20;;
14768;SDS011;7476;49.404;11.152;2022-09-13T06:29:56;8.30;;;7.50;;
14768;SDS011;7476;49.404;11.152;2022-09-13T06:32:23;8.37;;;7.57;;
14768;SDS011;7476;49.404;11.152;2022-09-13T06:34:49;10.97;;;7.77;;
14768;SDS011;7476;49.404;11.152;2022-09-13T06:37:16;7.70;;;7.00;;
14768;SDS011;7476;49.404;11.152;2022-09-13T06:39:42;9.53;;;8.00;;
14768;SDS011;7476;49.404;11.152;2022-09-13T06:42:10;7.97;;;7.17;;
14768;SDS011;7476;49.404;11.152;2022-09-13T06:44:37;9.10;;;8.20;;
14768;SDS011;7476;49.404;11.152;2022-09-13T06:47:04;8.07;;;7.27;;
14768;SDS011;7476;49.404;11.152;2022-09-13T06:49:30;9.47;;;7.30;;
14768;SDS011;7476;49.404;11.152;2022-09-13T06:51:57;7.90;;;7.20;;
14768;SDS011;7476;49.404;11.152;2022-09-13T06:54:24;9.40;;;7.73;;
14768;SDS011;7476;49.404;11.152;2022-09-13T06:56:50;8.63;;;7.83;;
14768;SDS011;7476;49.404;11.152;2022-09-13T06:59:19;11.10;;;7.77;;
14768;SDS011;7476;49.404;11.152;2022-09-13T07:01:45;8.97;;;8.10;;
14768;SDS011;7476;49.404;11.152;2022-09-13T07:04:13;7.20;;;6.60;;
14768;SDS011;7476;49.404;11.152;2022-09-13T07:06:41;7.30;;;6.70;;
14768;SDS011;7476;49.404;11.152;2022-09-13T07:09:11;7.53;;;6.27;;
14768;SDS011;7476;49.404;11.152;2022-09-13T07:11:39;7.67;;;6.97;;
14768;SDS011;7476;49.404;11.152;2022-09-13T07:14:07;7.47;;;6.77;;
14768;SDS011;7476;49.404;11.152;2022-09-13T07:16:36;7.50;;;6.70;;
14768;SDS011;7476;49.404;11.152;2022-09-13T07:19:03;7.63;;;6.43;;
14768;SDS011;7476;49.404;11.152;2022-09-13T07:21:32;6.97;;;6.37;;
14768;SDS011;7476;49.404;11.152;2022-09-13T07:24:00;6.40;;;5.80;;
14768;SDS011;7476;49.404;11.152;2022-09-13T07:26:27;6.20;;;5.40;;
14768;SDS011;7476;49.404;11.152;2022-09-13T07:28:55;5.70;;;5.17;;
14768;SDS011;7476;49.404;11.152;2022-09-13T07:31:24;5.90;;;5.40;;
14768;SDS011;7476;49.404;11.152;2022-09-13T07:33:54;6.00;;;5.40;;
14768;SDS011;7476;49.404;11.152;2022-09-13T07:36:22;5.33;;;4.93;;
14768;SDS011;7476;49.404;11.152;2022-09-13T07:38:49;5.43;;;4.93;;
14768;SDS011;7476;49.404;11.152;2022-09-13T07:41:17;5.30;;;4.80;;
14768;SDS011;7476;49.404;11.152;2022-09-13T07:43:45;5.30;;;4.90;;
14768;SDS011;7476;49.404;11.152;2022-09-13T07:46:13;5.60;;;5.10;;
14768;SDS011;7476;49.404;11.152;2022-09-13T07:48:43;6.37;;;4.87;;
14768;SDS011;7476;49.404;11.152;2022-09-13T07:51:13;6.23;;;5.03;;
14768;SDS011;7476;49.404;11.152;2022-09-13T07:53:41;5.40;;;4.43;;
14768;SDS011;7476;49.404;11.152;2022-09-13T07:56:10;5.50;;;5.03;;
14768;SDS011;7476;49.404;11.152;2022-09-13T07:58:38;5.43;;;4.93;;
14768;SDS011;7476;49.404;11.152;2022-09-13T08:01:07;5.27;;;4.60;;
14768;SDS011;7476;49.404;11.152;2022-09-13T08:03:35;6.53;;;4.73;;
14768;SDS011;7476;49.404;11.152;2022-09-13T08:06:02;5.27;;;4.77;;
14768;SDS011;7476;49.404;11.152;2022-09-13T08:08:32;5.10;;;4.60;;
14768;SDS011;7476;49.404;11.152;2022-09-13T08:11:00;5.40;;;4.90;;
14768;SDS011;7476;49.404;11.152;2022-09-13T08:13:28;5.73;;;4.60;;
14768;SDS011;7476;49.404;11.152;2022-09-13T08:15:59;5.90;;;4.40;;
14768;SDS011;7476;49.404;11.152;2022-09-13T08:18:27;4.87;;;4.37;;
14768;SDS011;7476;49.404;11.152;2022-09-13T08:20:54;4.87;;;4.47;;
14768;SDS011;7476;49.404;11.152;2022-09-13T08:23:22;5.10;;;4.60;;
14768;SDS011;7476;49.404;11.152;2022-09-13T08:25:50;5.40;;;4.37;;
14768;SDS011;7476;49.404;11.152;2022-09-13T08:28:18;4.33;;;3.97;;
14768;SDS011;7476;49.404;11.152;2022-09-13T08:30:46;4.63;;;4.23;;
14768;SDS011;7476;49.404;11.152;2022-09-13T08:33:14;4.30;;;3.90;;
14768;SDS011;7476;49.404;11.152;2022-09-13T08:35:47;4.73;;;4.07;;
14768;SDS011;7476;49.404;11.152;2022-09-13T08:38:15;4.00;;;3.70;;
14768;SDS011;7476;49.404;11.152;2022-09-13T08:40:44;4.57;;;4.00;;
14768;SDS011;7476;49.404;11.152;2022-09-13T08:43:17;4.20;;;3.63;;
14768;SDS011;7476;49.404;11.152;2022-09-13T08:45:54;3.87;;;3.53;;
14768;SDS011;7476;49.404;11.152;2022-09-13T08:48:28;3.80;;;3.50;;
14768;SDS011;7476;49.404;11.152;2022-09-13T08:51:00;4.03;;;3.73;;
14768;SDS011;7476;49.404;11.152;2022-09-13T08:53:31;3.50;;;3.30;;
14768;SDS011;7476;49.404;11.152;2022-09-13T08:56:09;3.83;;;3.53;;
14768;SDS011;7476;49.404;11.152;2022-09-13T08:58:43;3.83;;;3.30;;
14768;SDS011;7476;49.404;11.152;2022-09-13T09:01:24;3.57;;;3.23;;
14768;SDS011;7476;49.404;11.152;2022-09-13T09:04:01;3.40;;;3.10;;
14768;SDS011;7476;49.404;11.152;2022-09-13T09:06:32;3.70;;;3.20;;
14768;SDS011;7476;49.404;11.152;2022-09-13T09:09:01;3.47;;;2.97;;
14768;SDS011;7476;49.404;11.152;2022-09-13T09:11:33;3.67;;;3.37;;
14768;SDS011;7476;49.404;11.152;2022-09-13T09:14:11;3.57;;;3.27;;
14768;SDS011;7476;49.404;11.152;2022-09-13T09:16:46;3.53;;;2.90;;
14768;SDS011;7476;49.404;11.152;2022-09-13T09:19:18;3.93;;;3.30;;
14768;SDS011;7476;49.404;11.152;2022-09-13T09:21:48;3.10;;;2.90;;
14768;SDS011;7476;49.404;11.152;2022-09-13T09:24:17;3.47;;;2.90;;
14768;SDS011;7476;49.404;11.152;2022-09-13T09:26:46;3.67;;;3.07;;
14768;SDS011;7476;49.404;11.152;2022-09-13T09:29:19;3.40;;;3.10;;
14768;SDS011;7476;49.404;11.152;2022-09-13T09:31:52;3.77;;;3.10;;
14768;SDS011;7476;49.404;11.152;2022-09-13T09:34:29;4.23;;;3.20;;
14768;SDS011;7476;49.404;11.152;2022-09-13T09:37:07;5.30;;;3.40;;
14768;SDS011;7476;49.404;11.152;2022-09-13T09:39:40;5.13;;;3.40;;
14768;SDS011;7476;49.404;11.152;2022-09-13T09:42:09;5.13;;;3.53;;
14768;SDS011;7476;49.404;11.152;2022-09-13T09:44:43;4.03;;;3.60;;
14768;SDS011;7476;49.404;11.152;2022-09-13T09:47:14;6.37;;;3.43;;
14768;SDS011;7476;49.404;11.152;2022-09-13T09:49:44;4.67;;;3.80;;
14768;SDS011;7476;49.404;11.152;2022-09-13T09:52:30;4.13;;;3.47;;
14768;SDS011;7476;49.404;11.152;2022-09-13T09:55:09;4.60;;;4.20;;
14768;SDS011;7476;49.404;11.152;2022-09-13T09:57:53;4.30;;;3.90;;
14768;SDS011;7476;49.404;11.152;2022-09-13T10:00:23;6.03;;;3.43;;
14768;SDS011;7476;49.404;11.152;2022-09-13T10:02:53;5.13;;;3.60;;
14768;SDS011;7476;49.404;11.152;2022-09-13T10:05:22;3.53;;;3.20;;
14768;SDS011;7476;49.404;11.152;2022-09-13T10:07:57;6.23;;;3.47;;
14768;SDS011;7476;49.404;11.152;2022-09-13T10:10:26;5.43;;;3.57;;
14768;SDS011;7476;49.404;11.152;2022-09-13T10:13:00;3.90;;;3.00;;
14768;SDS011;7476;49.404;11.152;2022-09-13T10:15:31;4.27;;;3.33;;
14768;SDS011;7476;49.404;11.152;2022-09-13T10:18:00;3.70;;;3.40;;
14768;SDS011;7476;49.404;11.152;2022-09-13T10:20:30;3.90;;;3.50;;
14768;SDS011;7476;49.404;11.152;2022-09-13T10:23:08;5.00;;;3.10;;
14768;SDS011;7476;49.404;11.152;2022-09-13T10:25:36;4.40;;;3.13;;
14768;SDS011;7476;49.404;11.152;2022-09-13T10:28:04;3.13;;;2.83;;
14768;SDS011;7476;49.404;11.152;2022-09-13T10:30:39;4.23;;;2.80;;
14768;SDS011;7476;49.404;11.152;2022-09-13T10:33:08;3.63;;;3.20;;
14768;SDS011;7476;49.404;11.152;2022-09-13T10:35:47;3.20;;;2.60;;
14768;SDS011;7476;49.404;11.152;2022-09-13T10:38:16;3.57;;;2.97;;
14768;SDS011;7476;49.404;11.152;2022-09-13T10:40:49;4.03;;;3.10;;
14768;SDS011;7476;49.404;11.152;2022-09-13T10:43:15;3.40;;;3.07;;
14768;SDS011;7476;49.404;11.152;2022-09-13T10:45:45;3.50;;;3.20;;
14768;SDS011;7476;49.404;11.152;2022-09-13T10:48:15;3.77;;;3.20;;
14768;SDS011;7476;49.404;11.152;2022-09-13T10:50:58;4.03;;;3.40;;
14768;SDS011;7476;49.404;11.152;2022-09-13T10:53:31;3.63;;;2.73;;
14768;SDS011;7476;49.404;11.152;2022-09-13T10:56:00;3.13;;;2.87;;
14768;SDS011;7476;49.404;11.152;2022-09-13T10:58:27;3.97;;;2.87;;
14768;SDS011;7476;49.404;11.152;2022-09-13T11:01:05;4.10;;;2.50;;
14768;SDS011;7476;49.404;11.152;2022-09-13T11:06:47;4.73;;;2.60;;
14768;SDS011;7476;49.404;11.152;2022-09-13T11:09:22;3.10;;;2.63;;
14768;SDS011;7476;49.404;11.152;2022-09-13T11:11:59;3.23;;;2.47;;
14768;SDS011;7476;49.404;11.152;2022-09-13T11:14:36;3.80;;;3.33;;
14768;SDS011;7476;49.404;11.152;2022-09-13T11:17:15;3.07;;;2.80;;
14768;SDS011;7476;49.404;11.152;2022-09-13T11:19:57;3.00;;;2.53;;
14768;SDS011;7476;49.404;11.152;2022-09-13T11:22:35;2.70;;;2.40;;
14768;SDS011;7476;49.404;11.152;2022-09-13T11:25:26;2.90;;;2.70;;
14768;SDS011;7476;49.404;11.152;2022-09-13T11:28:04;4.13;;;2.67;;
14768;SDS011;7476;49.404;11.152;2022-09-13T11:30:44;3.20;;;2.83;;
14768;SDS011;7476;49.404;11.152;2022-09-13T11:33:29;3.20;;;2.83;;
14768;SDS011;7476;49.404;11.152;2022-09-13T11:36:09;3.43;;;3.13;;
14768;SDS011;7476;49.404;11.152;2022-09-13T11:38:52;2.70;;;2.50;;
14768;SDS011;7476;49.404;11.152;2022-09-13T11:41:30;3.53;;;3.07;;
14768;SDS011;7476;49.404;11.152;2022-09-13T11:44:14;3.13;;;2.93;;
14768;SDS011;7476;49.404;11.152;2022-09-13T11:46:56;2.90;;;2.70;;
14768;SDS011;7476;49.404;11.152;2022-09-13T11:49:33;3.50;;;2.47;;
14768;SDS011;7476;49.404;11.152;2022-09-13T11:52:14;2.83;;;2.63;;
14768;SDS011;7476;49.404;11.152;2022-09-13T11:54:55;5.60;;;2.60;;
14768;SDS011;7476;49.404;11.152;2022-09-13T11:57:30;2.90;;;2.60;;
14768;SDS011;7476;49.404;11.152;2022-09-13T12:00:01;2.67;;;2.47;;
14768;SDS011;7476;49.404;11.152;2022-09-13T12:02:33;4.03;;;2.57;;
14768;SDS011;7476;49.404;11.152;2022-09-13T12:05:07;2.70;;;2.50;;
14768;SDS011;7476;49.404;11.152;2022-09-13T12:07:40;3.57;;;2.77;;
14768;SDS011;7476;49.404;11.152;2022-09-13T12:10:12;3.93;;;2.93;;
14768;SDS011;7476;49.404;11.152;2022-09-13T12:12:42;3.20;;;2.90;;
14768;SDS011;7476;49.404;11.152;2022-09-13T12:15:14;2.93;;;2.73;;
14768;SDS011;7476;49.404;11.152;2022-09-13T12:17:46;3.00;;;2.70;;
14768;SDS011;7476;49.404;11.152;2022-09-13T12:20:17;5.17;;;3.13;;
14768;SDS011;7476;49.404;11.152;2022-09-13T12:22:52;5.20;;;3.70;;
14768;SDS011;7476;49.404;11.152;2022-09-13T12:25:22;3.47;;;2.90;;
14768;SDS011;7476;49.404;11.152;2022-09-13T12:27:53;3.60;;;3.27;;
14768;SDS011;7476;49.404;11.152;2022-09-13T12:30:24;3.33;;;3.03;;
14768;SDS011;7476;49.404;11.152;2022-09-13T12:32:58;5.37;;;2.90;;
14768;SDS011;7476;49.404;11.152;2022-09-13T12:35:27;3.60;;;3.30;;
14768;SDS011;7476;49.404;11.152;2022-09-13T12:38:10;3.77;;;3.40;;
14768;SDS011;7476;49.404;11.152;2022-09-13T12:41:03;3.70;;;3.40;;
14768;SDS011;7476;49.404;11.152;2022-09-13T12:43:54;3.43;;;3.13;;
14768;SDS011;7476;49.404;11.152;2022-09-13T12:49:35;3.93;;;3.40;;
14768;SDS011;7476;49.404;11.152;2022-09-13T12:55:05;3.47;;;2.93;;
14768;SDS011;7476;49.404;11.152;2022-09-13T12:57:53;5.20;;;3.20;;
14768;SDS011;7476;49.404;11.152;2022-09-13T13:00:29;3.70;;;2.93;;
14768;SDS011;7476;49.404;11.152;2022-09-13T13:03:00;3.47;;;3.17;;
14768;SDS011;7476;49.404;11.152;2022-09-13T13:05:36;4.13;;;2.90;;
14768;SDS011;7476;49.404;11.152;2022-09-13T13:08:14;4.30;;;2.93;;
14768;SDS011;7476;49.404;11.152;2022-09-13T13:10:58;4.30;;;3.10;;
14768;SDS011;7476;49.404;11.152;2022-09-13T13:13:29;5.17;;;3.50;;
14768;SDS011;7476;49.404;11.152;2022-09-13T13:16:04;4.17;;;3.77;;
14768;SDS011;7476;49.404;11.152;2022-09-13T13:18:46;3.50;;;3.20;;
14768;SDS011;7476;49.404;11.152;2022-09-13T13:27:32;4.13;;;3.30;;
14768;SDS011;7476;49.404;11.152;2022-09-13T13:33:19;3.63;;;3.33;;
14768;SDS011;7476;49.404;11.152;2022-09-13T13:35:49;4.87;;;3.47;;
14768;SDS011;7476;49.404;11.152;2022-09-13T13:38:29;3.60;;;3.30;;
14768;SDS011;7476;49.404;11.152;2022-09-13T13:41:06;4.60;;;3.83;;
14768;SDS011;7476;49.404;11.152;2022-09-13T13:43:54;4.33;;;3.20;;
14768;SDS011;7476;49.404;11.152;2022-09-13T13:46:26;3.93;;;3.50;;
14768;SDS011;7476;49.404;11.152;2022-09-13T13:54:59;4.30;;;3.40;;
14768;SDS011;7476;49.404;11.152;2022-09-13T13:57:30;4.07;;;3.77;;
14768;SDS011;7476;49.404;11.152;2022-09-13T14:00:05;3.90;;;3.50;;
14768;SDS011;7476;49.404;11.152;2022-09-13T14:02:38;4.27;;;3.80;;
14768;SDS011;7476;49.404;11.152;2022-09-13T14:05:22;4.00;;;3.60;;
14768;SDS011;7476;49.404;11.152;2022-09-13T14:08:02;3.80;;;3.50;;
14768;SDS011;7476;49.404;11.152;2022-09-13T14:10:53;4.73;;;3.63;;
14768;SDS011;7476;49.404;11.152;2022-09-13T14:13:36;4.63;;;3.63;;
14768;SDS011;7476;49.404;11.152;2022-09-13T14:16:15;4.13;;;3.40;;
14768;SDS011;7476;49.404;11.152;2022-09-13T14:19:02;4.07;;;3.63;;
14768;SDS011;7476;49.404;11.152;2022-09-13T14:21:46;5.93;;;3.80;;
14768;SDS011;7476;49.404;11.152;2022-09-13T14:24:34;4.77;;;3.43;;
14768;SDS011;7476;49.404;11.152;2022-09-13T14:27:02;3.60;;;3.30;;
14768;SDS011;7476;49.404;11.152;2022-09-13T14:29:29;3.23;;;3.00;;
14768;SDS011;7476;49.404;11.152;2022-09-13T14:32:02;4.13;;;3.40;;
14768;SDS011;7476;49.404;11.152;2022-09-13T14:34:31;3.43;;;3.23;;
14768;SDS011;7476;49.404;11.152;2022-09-13T14:37:03;3.53;;;3.20;;
14768;SDS011;7476;49.404;11.152;2022-09-13T14:39:32;5.13;;;3.40;;
14768;SDS011;7476;49.404;11.152;2022-09-13T14:42:02;3.53;;;3.23;;
14768;SDS011;7476;49.404;11.152;2022-09-13T14:44:37;3.63;;;3.33;;
14768;SDS011;7476;49.404;11.152;2022-09-13T14:47:14;3.97;;;3.17;;
14768;SDS011;7476;49.404;11.152;2022-09-13T14:49:46;3.80;;;3.50;;
14768;SDS011;7476;49.404;11.152;2022-09-13T14:52:17;3.90;;;3.23;;
14768;SDS011;7476;49.404;11.152;2022-09-13T14:54:49;6.20;;;3.37;;
14768;SDS011;7476;49.404;11.152;2022-09-13T14:57:21;4.70;;;3.50;;
14768;SDS011;7476;49.404;11.152;2022-09-13T14:59:53;3.93;;;3.17;;
14768;SDS011;7476;49.404;11.152;2022-09-13T15:02:24;4.30;;;3.20;;
14768;SDS011;7476;49.404;11.152;2022-09-13T15:04:53;3.67;;;3.37;;
14768;SDS011;7476;49.404;11.152;2022-09-13T15:07:22;4.93;;;3.40;;
14768;SDS011;7476;49.404;11.152;2022-09-13T15:09:54;3.60;;;3.30;;
14768;SDS011;7476;49.404;11.152;2022-09-13T15:12:24;4.80;;;3.73;;
14768;SDS011;7476;49.404;11.152;2022-09-13T15:17:57;4.97;;;3.87;;
14768;SDS011;7476;49.404;11.152;2022-09-13T15:20:26;5.73;;;3.33;;
14768;SDS011;7476;49.404;11.152;2022-09-13T15:22:55;3.83;;;3.43;;
14768;SDS011;7476;49.404;11.152;2022-09-13T15:25:23;4.70;;;3.57;;
14768;SDS011;7476;49.404;11.152;2022-09-13T15:27:52;4.83;;;3.67;;
14768;SDS011;7476;49.404;11.152;2022-09-13T15:30:20;4.50;;;3.57;;
14768;SDS011;7476;49.404;11.152;2022-09-13T15:32:49;4.07;;;3.67;;
14768;SDS011;7476;49.404;11.152;2022-09-13T15:35:42;4.30;;;3.90;;
14768;SDS011;7476;49.404;11.152;2022-09-13T15:38:14;4.13;;;3.73;;
14768;SDS011;7476;49.404;11.152;2022-09-13T15:40:44;4.53;;;3.60;;
14768;SDS011;7476;49.404;11.152;2022-09-13T15:43:12;4.67;;;3.73;;
14768;SDS011;7476;49.404;11.152;2022-09-13T15:45:39;4.80;;;3.83;;